createdAt,value
2023-01-30T00:01:40.121Z,0.53
2023-01-30T00:04:07.325Z,0.49
2023-01-30T00:06:34.220Z,0.57
2023-01-30T00:09:01.066Z,0.59
2023-01-30T00:11:30.376Z,0.50
2023-01-30T00:14:00.803Z,0.54
2023-01-30T00:16:27.520Z,0.57
2023-01-30T00:18:54.850Z,0.43
2023-01-30T00:21:21.635Z,0.42
2023-01-30T00:23:48.260Z,0.56
2023-01-30T00:26:15.256Z,0.56
2023-01-30T00:28:42.121Z,0.60
2023-01-30T00:31:09.781Z,0.47
2023-01-30T00:33:37.836Z,0.51
2023-01-30T00:36:05.758Z,0.49
2023-01-30T00:38:32.536Z,0.56
2023-01-30T00:40:59.090Z,0.41
2023-01-30T00:43:44.593Z,0.48
2023-01-30T00:46:45.494Z,0.47
2023-01-30T00:49:12.944Z,0.44
2023-01-30T00:51:39.907Z,0.44
2023-01-30T00:54:06.758Z,0.40
2023-01-30T00:56:33.805Z,0.32
2023-01-30T00:59:00.773Z,0.37
2023-01-30T01:01:27.428Z,0.32
2023-01-30T01:03:54.128Z,0.46
2023-01-30T01:06:20.769Z,0.39
2023-01-30T01:08:47.592Z,0.38
2023-01-30T01:11:24.683Z,0.40
2023-01-30T01:14:02.235Z,0.35
2023-01-30T01:16:30.244Z,0.41
2023-01-30T01:18:56.958Z,0.42
2023-01-30T01:21:23.996Z,0.27
2023-01-30T01:23:52.029Z,0.23
2023-01-30T01:26:19.410Z,0.40
2023-01-30T01:28:46.310Z,0.37
2023-01-30T01:31:14.957Z,0.39
2023-01-30T01:33:41.695Z,0.44
2023-01-30T01:36:09.168Z,0.42
2023-01-30T01:38:35.805Z,0.33
2023-01-30T01:41:02.439Z,0.42
2023-01-30T01:43:32.440Z,0.55
2023-01-30T01:46:12.589Z,0.48
2023-01-30T01:48:42.506Z,0.61
2023-01-30T01:51:13.479Z,0.63
2023-01-30T01:53:46.392Z,0.62
2023-01-30T01:56:15.243Z,0.69
2023-01-30T01:58:48.498Z,0.72
2023-01-30T02:01:15.651Z,0.77
2023-01-30T02:03:46.327Z,0.81
2023-01-30T02:06:14.873Z,0.80
2023-01-30T02:08:45.914Z,0.82
2023-01-30T02:11:35.385Z,0.83
2023-01-30T02:14:02.770Z,0.83
2023-01-30T02:16:29.504Z,0.88
2023-01-30T02:18:56.149Z,0.90
2023-01-30T02:22:08.980Z,0.82
2023-01-30T02:25:23.012Z,0.86
2023-01-30T02:28:27.641Z,0.96
2023-01-30T02:31:19.161Z,0.98
2023-01-30T02:34:11.987Z,0.89
2023-01-30T02:37:31.254Z,0.98
2023-01-30T02:40:50.414Z,1.04
2023-01-30T02:43:25.320Z,0.96
2023-01-30T02:45:58.789Z,1.03
2023-01-30T02:48:35.270Z,0.98
2023-01-30T02:51:06.335Z,1.02
2023-01-30T02:53:34.038Z,1.01
2023-01-30T02:56:01.575Z,1.08
2023-01-30T02:58:33.319Z,1.03
2023-01-30T03:01:16.915Z,1.07
2023-01-30T03:04:18.670Z,1.17
2023-01-30T03:07:37.788Z,1.08
2023-01-30T03:10:24.406Z,1.11
2023-01-30T03:13:09.570Z,1.20
2023-01-30T03:15:42.616Z,1.24
2023-01-30T03:18:09.745Z,1.11
2023-01-30T03:20:38.340Z,1.24
2023-01-30T03:23:05.096Z,1.28
2023-01-30T03:25:32.509Z,1.18
2023-01-30T03:28:00.257Z,1.21
2023-01-30T03:30:27.181Z,1.18
2023-01-30T03:32:53.812Z,1.27
2023-01-30T03:35:20.618Z,1.25
2023-01-30T03:37:47.602Z,1.35
2023-01-30T03:40:16.484Z,1.36
2023-01-30T03:42:43.342Z,1.41
2023-01-30T03:45:11.317Z,1.25
2023-01-30T03:47:37.975Z,1.32
2023-01-30T03:50:05.014Z,1.24
2023-01-30T03:52:32.028Z,1.38
2023-01-30T03:55:00.212Z,1.30
2023-01-30T03:57:27.015Z,1.47
2023-01-30T03:59:54.077Z,1.51
2023-01-30T04:02:23.374Z,1.48
2023-01-30T04:04:50.154Z,1.41
2023-01-30T04:07:17.882Z,1.35
2023-01-30T04:09:44.954Z,1.49
2023-01-30T04:12:11.701Z,1.30
2023-01-30T04:14:38.337Z,1.38
2023-01-30T04:17:05.391Z,1.38
2023-01-30T04:19:32.095Z,1.40
2023-01-30T04:21:58.727Z,1.41
2023-01-30T04:24:25.332Z,1.43
2023-01-30T04:26:52.154Z,1.42
2023-01-30T04:29:19.410Z,1.39
2023-01-30T04:31:46.131Z,1.44
2023-01-30T04:34:12.823Z,1.42
2023-01-30T04:36:39.957Z,1.55
2023-01-30T04:39:06.629Z,1.58
2023-01-30T04:41:33.343Z,1.62
2023-01-30T04:44:00.000Z,1.61
2023-01-30T04:46:26.644Z,1.61
2023-01-30T04:48:53.369Z,1.65
2023-01-30T04:51:20.307Z,1.67
2023-01-30T04:53:46.947Z,1.69
2023-01-30T04:56:13.581Z,1.67
2023-01-30T04:58:40.218Z,1.70
2023-01-30T05:01:15.256Z,1.74
2023-01-30T05:03:41.885Z,1.83
2023-01-30T05:06:08.529Z,1.97
2023-01-30T05:08:35.393Z,1.94
2023-01-30T05:11:02.005Z,2.03
2023-01-30T05:13:28.653Z,2.00
2023-01-30T05:15:55.493Z,2.07
2023-01-30T05:18:22.107Z,2.12
2023-01-30T05:20:48.798Z,2.03
2023-01-30T05:23:15.451Z,1.98
2023-01-30T05:25:42.200Z,2.01
2023-01-30T05:28:08.885Z,2.05
2023-01-30T05:30:35.617Z,1.98
2023-01-30T05:33:02.349Z,1.98
2023-01-30T05:35:29.413Z,2.02
2023-01-30T05:37:56.216Z,2.05
2023-01-30T05:40:22.835Z,2.07
2023-01-30T05:42:49.447Z,2.05
2023-01-30T05:45:16.521Z,2.07
2023-01-30T05:47:43.376Z,2.12
2023-01-30T05:50:11.144Z,2.26
2023-01-30T05:52:37.722Z,2.20
2023-01-30T05:55:04.605Z,2.16
2023-01-30T05:57:31.252Z,2.24
2023-01-30T05:59:57.936Z,2.29
2023-01-30T06:02:24.629Z,2.25
2023-01-30T06:04:51.242Z,2.33
2023-01-30T06:07:17.875Z,2.31
2023-01-30T06:09:44.501Z,2.39
2023-01-30T06:12:11.131Z,2.35
2023-01-30T06:14:37.764Z,2.40
2023-01-30T06:17:04.480Z,2.40
2023-01-30T06:19:31.350Z,2.40
2023-01-30T06:21:58.096Z,2.46
2023-01-30T06:24:24.721Z,2.40
2023-01-30T06:26:51.550Z,2.41
2023-01-30T06:29:18.466Z,2.51
2023-01-30T06:31:45.162Z,2.58
2023-01-30T06:34:12.326Z,2.54
2023-01-30T06:36:38.927Z,2.54
2023-01-30T06:39:05.560Z,2.50
2023-01-30T06:41:32.135Z,2.50
2023-01-30T06:43:58.727Z,2.56
2023-01-30T06:46:25.375Z,2.49
2023-01-30T06:48:52.206Z,2.56
2023-01-30T06:51:18.870Z,2.66
2023-01-30T06:53:45.639Z,2.65
2023-01-30T06:56:12.347Z,2.60
2023-01-30T06:58:39.024Z,2.67
2023-01-30T07:01:05.889Z,2.68
2023-01-30T07:03:32.504Z,2.70
2023-01-30T07:05:59.150Z,2.65
2023-01-30T07:08:25.975Z,2.68
2023-01-30T07:10:52.976Z,2.69
2023-01-30T07:13:19.729Z,2.80
2023-01-30T07:15:47.169Z,2.76
2023-01-30T07:18:14.011Z,2.74
2023-01-30T07:20:42.329Z,2.77
2023-01-30T07:23:08.972Z,2.85
2023-01-30T07:25:35.587Z,2.74
2023-01-30T07:28:03.182Z,2.80
2023-01-30T07:30:32.389Z,2.80
2023-01-30T07:32:59.925Z,2.72
2023-01-30T07:35:28.777Z,2.78
2023-01-30T07:37:55.613Z,2.82
2023-01-30T07:40:22.606Z,2.77
2023-01-30T07:42:59.790Z,2.76
2023-01-30T07:45:29.492Z,2.85
2023-01-30T07:47:56.115Z,2.85
2023-01-30T07:50:22.777Z,2.83
2023-01-30T07:52:49.444Z,2.85
2023-01-30T07:55:16.582Z,2.95
2023-01-30T07:57:43.468Z,2.89
2023-01-30T08:00:11.075Z,2.90
2023-01-30T08:02:38.347Z,2.94
2023-01-30T08:05:06.347Z,3.00
2023-01-30T08:07:33.190Z,3.09
2023-01-30T08:10:00.106Z,3.09
2023-01-30T08:12:26.784Z,3.15
2023-01-30T08:14:53.505Z,3.08
2023-01-30T08:17:20.168Z,3.08
2023-01-30T08:19:46.802Z,3.05
2023-01-30T08:22:14.678Z,3.07
2023-01-30T08:24:41.481Z,3.10
2023-01-30T08:27:08.167Z,3.09
2023-01-30T08:29:34.863Z,3.12
2023-01-30T08:32:01.827Z,3.22
2023-01-30T08:34:28.561Z,3.20
2023-01-30T08:36:55.203Z,3.18
2023-01-30T08:39:21.857Z,3.29
2023-01-30T08:41:48.621Z,3.32
2023-01-30T08:44:15.286Z,3.36
2023-01-30T08:46:42.008Z,3.34
2023-01-30T08:49:08.622Z,3.38
2023-01-30T08:51:35.420Z,3.46
2023-01-30T08:54:02.115Z,3.52
2023-01-30T08:56:29.495Z,3.51
2023-01-30T08:58:56.431Z,3.59
2023-01-30T09:01:23.204Z,3.53
2023-01-30T09:03:49.993Z,3.56
2023-01-30T09:06:16.766Z,3.69
2023-01-30T09:08:43.376Z,3.68
2023-01-30T09:11:11.290Z,3.65
2023-01-30T09:13:41.247Z,3.69
2023-01-30T09:16:07.886Z,3.70
2023-01-30T09:18:34.543Z,3.76
2023-01-30T09:21:04.980Z,3.65
2023-01-30T09:23:32.056Z,3.71
2023-01-30T09:25:58.739Z,3.75
2023-01-30T09:28:25.459Z,3.71
2023-01-30T09:30:52.207Z,3.71
2023-01-30T09:33:20.560Z,3.72
2023-01-30T09:35:48.451Z,3.72
2023-01-30T09:38:16.020Z,3.74
2023-01-30T09:40:58.915Z,3.77
2023-01-30T09:43:49.281Z,3.80
2023-01-30T09:46:30.419Z,3.80
2023-01-30T09:49:17.645Z,3.95
2023-01-30T09:52:04.430Z,3.96
2023-01-30T09:54:33.720Z,3.96
2023-01-30T09:57:32.613Z,3.99
2023-01-30T10:00:20.679Z,3.97
2023-01-30T10:03:20.476Z,4.07
2023-01-30T10:05:49.736Z,4.11
2023-01-30T10:09:03.202Z,4.19
2023-01-30T10:11:50.496Z,4.24
2023-01-30T10:14:49.889Z,4.31
2023-01-30T10:17:58.137Z,4.29
2023-01-30T10:20:44.057Z,4.23
2023-01-30T10:23:57.593Z,4.20
2023-01-30T10:26:27.002Z,4.26
2023-01-30T10:29:07.260Z,4.18
2023-01-30T10:31:43.278Z,4.13
2023-01-30T10:34:12.884Z,4.02
2023-01-30T10:36:44.042Z,4.02
2023-01-30T10:39:31.704Z,4.02
2023-01-30T10:42:13.315Z,3.97
2023-01-30T10:44:43.101Z,3.97
2023-01-30T10:47:47.323Z,3.83
2023-01-30T10:50:20.342Z,3.87
2023-01-30T10:52:53.368Z,3.78
2023-01-30T10:55:37.296Z,3.69
2023-01-30T10:58:43.008Z,3.64
2023-01-30T11:01:19.075Z,3.68
2023-01-30T11:03:48.834Z,3.69
2023-01-30T11:06:18.263Z,3.70
2023-01-30T11:08:45.267Z,3.69
2023-01-30T11:11:33.914Z,3.74
2023-01-30T11:14:09.219Z,3.71
2023-01-30T11:16:45.774Z,3.76
2023-01-30T11:19:22.273Z,3.79
2023-01-30T11:21:52.172Z,3.92
2023-01-30T11:24:25.175Z,3.96
2023-01-30T11:26:53.313Z,3.96
2023-01-30T11:29:31.582Z,3.91
2023-01-30T11:32:25.413Z,3.94
2023-01-30T11:35:04.640Z,4.18
2023-01-30T11:37:32.575Z,4.32
2023-01-30T11:39:59.312Z,4.54
2023-01-30T11:42:31.176Z,4.80
2023-01-30T11:45:16.169Z,4.92
2023-01-30T11:47:57.890Z,5.08
2023-01-30T11:50:34.110Z,5.27
2023-01-30T11:53:04.485Z,5.40
2023-01-30T11:55:34.212Z,5.54
2023-01-30T11:58:01.264Z,5.62
2023-01-30T12:00:38.884Z,5.73
2023-01-30T12:03:07.037Z,5.80
2023-01-30T12:05:35.735Z,5.56
2023-01-30T12:08:39.353Z,5.44
2023-01-30T12:11:25.982Z,5.20
2023-01-30T12:13:55.342Z,5.20
2023-01-30T12:16:50.879Z,5.04
2023-01-30T12:19:29.627Z,5.12
2023-01-30T12:22:05.916Z,5.10
2023-01-30T12:24:46.581Z,5.17
2023-01-30T12:27:18.055Z,5.20
2023-01-30T12:29:55.892Z,5.15
2023-01-30T12:32:27.086Z,5.40
2023-01-30T12:34:53.800Z,5.37
2023-01-30T12:38:25.543Z,5.61
2023-01-30T12:41:46.614Z,5.65
2023-01-30T12:44:21.691Z,5.76
2023-01-30T12:47:47.085Z,5.83
2023-01-30T12:50:26.649Z,5.89
2023-01-30T12:53:25.266Z,5.92
2023-01-30T12:56:16.192Z,6.01
2023-01-30T12:58:52.258Z,5.96
2023-01-30T13:01:49.325Z,6.05
2023-01-30T13:04:56.449Z,6.03
2023-01-30T13:07:41.701Z,6.01
2023-01-30T13:10:16.252Z,6.08
2023-01-30T13:12:51.647Z,6.19
2023-01-30T13:15:32.732Z,6.30
2023-01-30T13:18:10.996Z,6.23
2023-01-30T13:21:00.696Z,6.22
2023-01-30T13:23:50.693Z,6.29
2023-01-30T13:26:21.517Z,6.29
2023-01-30T13:29:00.296Z,6.25
2023-01-30T13:31:30.976Z,6.25
2023-01-30T13:34:07.350Z,6.14
2023-01-30T13:36:46.012Z,6.19
2023-01-30T13:41:50.389Z,6.25
2023-01-30T13:44:31.142Z,6.36
2023-01-30T13:47:00.252Z,6.45
2023-01-30T13:49:58.374Z,6.51
2023-01-30T13:52:52.721Z,6.61
2023-01-30T13:55:34.121Z,6.49
2023-01-30T13:58:25.328Z,6.45
2023-01-30T14:00:55.652Z,6.40
2023-01-30T14:03:29.626Z,6.46
2023-01-30T14:06:02.717Z,6.39
2023-01-30T14:08:39.313Z,6.48
2023-01-30T14:11:35.114Z,6.45
2023-01-30T14:14:41.128Z,6.51
2023-01-30T14:17:11.560Z,6.56
2023-01-30T14:19:48.777Z,6.60
2023-01-30T14:22:47.324Z,6.59
2023-01-30T14:25:23.696Z,6.64
2023-01-30T14:28:01.375Z,6.68
2023-01-30T14:30:48.260Z,6.67
2023-01-30T14:33:34.368Z,6.49
2023-01-30T14:36:33.678Z,6.62
2023-01-30T14:39:38.890Z,6.52
2023-01-30T14:42:11.866Z,6.43
2023-01-30T14:45:05.531Z,6.42
2023-01-30T14:47:40.529Z,6.39
2023-01-30T14:50:23.514Z,6.31
2023-01-30T14:52:50.971Z,6.33
2023-01-30T14:55:24.375Z,6.33
2023-01-30T14:58:15.557Z,6.37
2023-01-30T15:00:42.319Z,6.29
2023-01-30T15:03:17.240Z,6.33
2023-01-30T15:05:44.967Z,6.20
2023-01-30T15:08:18.467Z,6.21
2023-01-30T15:11:06.001Z,6.26
2023-01-30T15:14:05.329Z,6.25
2023-01-30T15:16:48.428Z,6.34
2023-01-30T15:19:45.532Z,6.26
2023-01-30T15:22:31.462Z,6.17
2023-01-30T15:25:36.826Z,6.19
2023-01-30T15:28:12.507Z,6.20
2023-01-30T15:30:50.897Z,6.19
2023-01-30T15:33:30.911Z,6.28
2023-01-30T15:35:58.417Z,6.27
2023-01-30T15:38:34.483Z,6.29
2023-01-30T15:41:02.727Z,6.35
2023-01-30T15:43:48.652Z,6.28
2023-01-30T15:46:48.121Z,6.29
2023-01-30T15:49:57.407Z,6.25
2023-01-30T15:52:29.183Z,6.26
2023-01-30T15:54:57.473Z,6.23
2023-01-30T15:57:30.512Z,5.89
2023-01-30T15:59:57.875Z,5.72
2023-01-30T16:02:42.573Z,5.65
2023-01-30T16:05:20.781Z,5.57
2023-01-30T16:07:50.110Z,5.39
2023-01-30T16:10:19.831Z,5.39
2023-01-30T16:12:47.667Z,5.29
2023-01-30T16:15:41.478Z,5.24
2023-01-30T16:18:23.473Z,5.31
2023-01-30T16:21:02.071Z,5.28
2023-01-30T16:23:43.694Z,5.30
2023-01-30T16:26:18.233Z,5.36
2023-01-30T16:28:45.515Z,5.35
2023-01-30T16:31:12.451Z,5.32
2023-01-30T16:33:39.249Z,5.28
2023-01-30T16:36:27.361Z,5.31
2023-01-30T16:38:55.654Z,5.35
2023-01-30T16:41:35.278Z,5.21
2023-01-30T16:44:22.198Z,5.17
2023-01-30T16:47:27.935Z,5.20
2023-01-30T16:49:56.207Z,5.18
2023-01-30T16:52:29.413Z,5.21
2023-01-30T16:55:01.692Z,5.09
2023-01-30T16:57:41.995Z,5.05
2023-01-30T17:00:34.732Z,5.15
2023-01-30T17:03:05.220Z,5.14
2023-01-30T17:05:39.696Z,5.09
2023-01-30T17:08:45.162Z,5.12
2023-01-30T17:11:29.581Z,5.07
2023-01-30T17:14:14.863Z,5.10
2023-01-30T17:16:46.440Z,5.01
2023-01-30T17:19:14.284Z,5.00
2023-01-30T17:21:49.696Z,4.89
2023-01-30T17:24:19.802Z,4.93
2023-01-30T17:26:52.789Z,4.96
2023-01-30T17:29:41.321Z,4.90
2023-01-30T17:32:12.226Z,4.81
2023-01-30T17:34:41.546Z,4.79
2023-01-30T17:37:20.445Z,4.74
2023-01-30T17:39:47.743Z,4.71
2023-01-30T17:42:15.482Z,4.64
2023-01-30T17:44:42.132Z,4.59
2023-01-30T17:47:11.605Z,4.56
2023-01-30T17:49:38.441Z,4.50
2023-01-30T17:52:05.513Z,4.54
2023-01-30T17:54:32.392Z,4.51
2023-01-30T17:57:07.150Z,4.61
2023-01-30T17:59:33.896Z,4.60
2023-01-30T18:02:00.734Z,4.61
2023-01-30T18:04:27.600Z,4.58
2023-01-30T18:06:59.261Z,4.58
2023-01-30T18:09:27.109Z,4.60
2023-01-30T18:11:53.805Z,4.60
2023-01-30T18:14:22.180Z,4.70
2023-01-30T18:16:49.644Z,4.68
2023-01-30T18:19:24.321Z,4.75
2023-01-30T18:21:51.468Z,4.71
2023-01-30T18:24:18.654Z,4.75
2023-01-30T18:26:46.413Z,4.75
2023-01-30T18:29:13.590Z,4.72
2023-01-30T18:31:41.320Z,4.74
2023-01-30T18:34:10.045Z,4.79
2023-01-30T18:36:37.256Z,4.82
2023-01-30T18:39:05.429Z,4.82
2023-01-30T18:41:32.057Z,4.97
2023-01-30T18:44:03.619Z,5.00
2023-01-30T18:46:30.534Z,4.97
2023-01-30T18:48:58.015Z,5.01
2023-01-30T18:51:27.312Z,5.15
2023-01-30T18:53:54.910Z,5.20
2023-01-30T18:56:31.420Z,5.12
2023-01-30T18:59:02.428Z,5.13
2023-01-30T19:01:31.368Z,5.17
2023-01-30T19:04:00.388Z,5.12
2023-01-30T19:06:28.160Z,5.05
2023-01-30T19:08:56.138Z,5.04
2023-01-30T19:11:41.480Z,5.06
2023-01-30T19:14:09.193Z,5.15
2023-01-30T19:16:37.195Z,5.11
2023-01-30T19:19:04.304Z,5.18
2023-01-30T19:21:31.453Z,5.25
2023-01-30T19:23:58.272Z,5.27
2023-01-30T19:26:25.960Z,5.28
2023-01-30T19:28:52.974Z,5.28
2023-01-30T19:31:21.883Z,5.35
2023-01-30T19:33:55.092Z,5.33
2023-01-30T19:36:23.348Z,5.38
2023-01-30T19:38:50.150Z,5.29
2023-01-30T19:41:29.195Z,5.41
2023-01-30T19:43:56.939Z,5.35
2023-01-30T19:46:23.687Z,5.42
2023-01-30T19:48:50.552Z,5.40
2023-01-30T19:51:20.666Z,5.33
2023-01-30T19:53:51.559Z,5.30
2023-01-30T19:56:21.897Z,5.39
2023-01-30T19:58:52.536Z,5.47
2023-01-30T20:01:20.870Z,5.42
2023-01-30T20:03:48.337Z,5.53
2023-01-30T20:06:20.667Z,5.53
2023-01-30T20:08:50.289Z,5.51
2023-01-30T20:11:18.774Z,5.66
2023-01-30T20:13:46.592Z,5.52
2023-01-30T20:16:15.785Z,5.61
2023-01-30T20:18:42.508Z,5.56
2023-01-30T20:21:11.500Z,5.51
2023-01-30T20:23:39.029Z,5.55
2023-01-30T20:26:07.383Z,5.54
2023-01-30T20:28:34.768Z,5.55
2023-01-30T20:31:08.250Z,5.51
2023-01-30T20:33:35.309Z,5.60
2023-01-30T20:36:03.803Z,5.53
2023-01-30T20:38:34.463Z,5.56
2023-01-30T20:41:18.554Z,5.64
2023-01-30T20:43:49.273Z,5.50
2023-01-30T20:46:21.706Z,5.61
2023-01-30T20:48:49.501Z,5.68
2023-01-30T20:51:23.820Z,5.60
2023-01-30T20:53:55.229Z,5.56
2023-01-30T20:56:23.831Z,5.53
2023-01-30T20:58:50.671Z,5.55
2023-01-30T21:01:23.273Z,5.53
2023-01-30T21:03:52.441Z,5.45
2023-01-30T21:06:37.057Z,5.45
2023-01-30T21:09:21.029Z,5.36
2023-01-30T21:11:49.223Z,5.28
2023-01-30T21:14:16.980Z,5.23
2023-01-30T21:16:43.999Z,5.27
2023-01-30T21:19:15.269Z,5.37
2023-01-30T21:21:54.458Z,5.12
2023-01-30T21:24:27.406Z,5.18
2023-01-30T21:26:54.968Z,5.10
2023-01-30T21:29:27.175Z,5.15
2023-01-30T21:31:56.623Z,5.05
2023-01-30T21:34:23.805Z,4.98
2023-01-30T21:37:09.491Z,5.13
2023-01-30T21:39:54.871Z,5.07
2023-01-30T21:42:40.496Z,4.99
2023-01-30T21:45:07.956Z,5.00
2023-01-30T21:47:34.588Z,5.07
2023-01-30T21:50:01.462Z,5.00
2023-01-30T21:52:28.258Z,4.89
2023-01-30T21:54:54.907Z,4.92
2023-01-30T21:57:23.745Z,4.86
2023-01-30T21:59:50.842Z,4.98
2023-01-30T22:02:17.511Z,4.96
2023-01-30T22:04:44.239Z,4.97
2023-01-30T22:07:10.937Z,4.88
2023-01-30T22:09:37.643Z,4.93
2023-01-30T22:12:04.721Z,4.92
2023-01-30T22:14:33.372Z,4.92
2023-01-30T22:17:00.190Z,4.99
2023-01-30T22:19:26.841Z,4.92
2023-01-30T22:21:53.819Z,4.88
2023-01-30T22:24:20.583Z,4.86
2023-01-30T22:26:47.535Z,4.85
2023-01-30T22:29:15.969Z,4.86
2023-01-30T22:31:42.820Z,4.80
2023-01-30T22:34:09.946Z,4.83
2023-01-30T22:36:38.356Z,4.81
2023-01-30T22:39:05.661Z,4.74
2023-01-30T22:41:34.996Z,4.86
2023-01-30T22:44:03.819Z,4.78
2023-01-30T22:46:32.813Z,4.75
2023-01-30T22:49:00.743Z,4.86
2023-01-30T22:51:30.173Z,4.89
2023-01-30T22:53:59.022Z,5.02
2023-01-30T22:56:40.657Z,4.92
2023-01-30T22:59:08.031Z,4.93
2023-01-30T23:01:37.171Z,4.82
2023-01-30T23:04:06.627Z,4.84
2023-01-30T23:06:33.934Z,4.88
2023-01-30T23:09:01.236Z,4.88
2023-01-30T23:11:34.968Z,4.87
2023-01-30T23:14:10.369Z,4.91
2023-01-30T23:16:39.169Z,4.85
2023-01-30T23:19:07.334Z,4.80
2023-01-30T23:21:40.305Z,4.83
2023-01-30T23:24:15.701Z,4.83
2023-01-30T23:26:48.136Z,4.75
2023-01-30T23:29:17.384Z,4.90
2023-01-30T23:31:45.115Z,4.78
2023-01-30T23:34:19.292Z,4.78
2023-01-30T23:36:46.197Z,4.88
2023-01-30T23:39:14.289Z,4.84
2023-01-30T23:41:42.145Z,4.82
2023-01-30T23:44:09.713Z,4.90
2023-01-30T23:46:39.075Z,5.01
2023-01-30T23:49:08.428Z,4.95
2023-01-30T23:51:36.824Z,4.92
2023-01-30T23:54:04.559Z,4.94
2023-01-30T23:56:32.693Z,4.95
2023-01-30T23:58:59.386Z,4.97
